createdAt,value
2018-12-04T00:00:54.460Z,102.40
2018-12-04T00:03:25.846Z,115.07
2018-12-04T00:05:56.011Z,105.57
2018-12-04T00:08:27.092Z,112.57
2018-12-04T00:10:58.081Z,111.00
2018-12-04T00:13:28.572Z,107.20
2018-12-04T00:15:59.058Z,114.87
2018-12-04T00:18:29.819Z,99.20
2018-12-04T00:21:02.540Z,109.50
2018-12-04T00:23:33.327Z,114.57
2018-12-04T00:26:04.245Z,105.30
2018-12-04T00:28:34.696Z,115.70
2018-12-04T00:31:04.553Z,117.23
2018-12-04T00:33:34.876Z,107.17
2018-12-04T00:36:06.093Z,123.60
2018-12-04T00:38:36.405Z,115.50
2018-12-04T00:41:07.045Z,121.17
2018-12-04T00:43:38.051Z,106.53
2018-12-04T00:46:09.909Z,119.47
2018-12-04T00:48:40.473Z,119.53
2018-12-04T00:51:10.794Z,125.27
2018-12-04T00:53:40.808Z,112.67
2018-12-04T00:56:11.136Z,114.63
2018-12-04T00:58:41.800Z,110.27
2018-12-04T01:01:11.820Z,111.43
2018-12-04T01:03:41.983Z,114.20
2018-12-04T01:06:12.571Z,120.63
2018-12-04T01:08:42.791Z,113.00
2018-12-04T01:11:13.076Z,119.37
2018-12-04T01:13:43.193Z,116.33
2018-12-04T01:16:13.421Z,105.27
2018-12-04T01:18:43.955Z,113.63
2018-12-04T01:21:14.182Z,115.90
2018-12-04T01:23:45.015Z,107.50
2018-12-04T01:26:30.805Z,109.00
2018-12-04T01:29:01.754Z,114.40
2018-12-04T01:31:32.512Z,113.27
2018-12-04T01:34:02.846Z,92.63
2018-12-04T01:36:32.703Z,103.77
2018-12-04T01:39:04.105Z,90.23
2018-12-04T01:41:34.402Z,111.57
2018-12-04T01:44:04.669Z,103.50
2018-12-04T01:46:34.594Z,113.67
2018-12-04T01:49:05.013Z,88.20
2018-12-04T01:51:35.283Z,95.60
2018-12-04T01:54:05.443Z,99.00
2018-12-04T01:56:35.669Z,96.57
2018-12-04T01:59:06.068Z,106.60
2018-12-04T02:01:38.090Z,95.43
2018-12-04T02:04:08.429Z,108.73
2018-12-04T02:06:38.430Z,107.17
2018-12-04T02:09:08.984Z,99.10
2018-12-04T02:11:39.136Z,109.17
2018-12-04T02:14:09.449Z,111.80
2018-12-04T02:16:39.505Z,94.43
2018-12-04T02:19:09.724Z,109.60
2018-12-04T02:21:40.164Z,112.67
2018-12-04T02:24:10.497Z,112.67
2018-12-04T02:26:40.510Z,110.93
2018-12-04T02:29:11.625Z,104.87
2018-12-04T02:31:42.178Z,89.20
2018-12-04T02:34:12.452Z,119.50
2018-12-04T02:36:42.638Z,111.50
2018-12-04T02:39:12.775Z,115.13
2018-12-04T02:41:43.087Z,120.50
2018-12-04T02:44:13.173Z,117.13
2018-12-04T02:46:43.155Z,112.70
2018-12-04T02:49:13.833Z,122.90
2018-12-04T02:51:43.967Z,130.63
2018-12-04T02:54:16.827Z,116.20
2018-12-04T02:56:47.066Z,117.73
2018-12-04T02:59:16.995Z,107.67
2018-12-04T03:01:47.624Z,126.03
2018-12-04T03:04:17.455Z,114.73
2018-12-04T03:06:48.133Z,119.10
2018-12-04T03:09:18.478Z,113.77
2018-12-04T03:11:48.709Z,123.50
2018-12-04T03:14:18.625Z,123.13
2018-12-04T03:16:49.013Z,129.03
2018-12-04T03:19:18.864Z,127.50
2018-12-04T03:21:48.694Z,130.87
2018-12-04T03:24:18.665Z,132.77
2018-12-04T03:26:48.947Z,124.67
2018-12-04T03:29:19.453Z,129.13
2018-12-04T03:31:49.393Z,132.87
2018-12-04T03:34:19.430Z,128.93
2018-12-04T03:36:49.470Z,124.47
2018-12-04T03:39:19.423Z,112.90
2018-12-04T03:41:49.628Z,136.97
2018-12-04T03:44:19.691Z,121.97
2018-12-04T03:46:49.736Z,125.33
2018-12-04T03:49:19.632Z,132.57
2018-12-04T03:51:49.666Z,132.53
2018-12-04T03:54:19.906Z,133.03
2018-12-04T03:56:50.001Z,141.77
2018-12-04T03:59:20.343Z,126.17
2018-12-04T04:01:50.743Z,124.30
2018-12-04T04:04:21.623Z,143.33
2018-12-04T04:06:51.893Z,140.27
2018-12-04T04:09:22.054Z,139.70
2018-12-04T04:11:52.082Z,143.20
2018-12-04T04:14:22.516Z,147.67
2018-12-04T04:16:52.631Z,141.57
2018-12-04T04:19:23.523Z,146.80
2018-12-04T04:21:53.857Z,136.83
2018-12-04T04:24:24.312Z,152.07
2018-12-04T04:26:54.482Z,142.77
2018-12-04T04:29:24.324Z,149.20
2018-12-04T04:31:54.496Z,163.73
2018-12-04T04:34:25.457Z,155.60
2018-12-04T04:36:56.194Z,170.00
2018-12-04T04:39:26.167Z,158.53
2018-12-04T04:41:55.949Z,172.83
2018-12-04T04:44:25.913Z,176.87
2018-12-04T04:46:55.892Z,163.97
2018-12-04T04:49:26.137Z,156.80
2018-12-04T04:51:55.985Z,184.90
2018-12-04T04:54:28.145Z,207.23
2018-12-04T04:56:59.151Z,204.50
2018-12-04T04:59:30.114Z,201.90
2018-12-04T05:01:59.983Z,185.50
2018-12-04T05:04:30.880Z,195.50
2018-12-04T05:07:01.827Z,187.33
2018-12-04T05:09:31.867Z,190.07
2018-12-04T05:12:02.134Z,182.40
2018-12-04T05:14:33.595Z,188.67
2018-12-04T05:17:04.050Z,201.30
2018-12-04T05:19:34.329Z,176.30
2018-12-04T05:22:04.909Z,196.40
2018-12-04T05:24:34.670Z,146.87
2018-12-04T05:27:04.709Z,183.70
2018-12-04T05:29:34.871Z,173.60
2018-12-04T05:32:05.601Z,131.07
2018-12-04T05:34:36.443Z,175.90
2018-12-04T05:37:08.496Z,181.83
2018-12-04T05:39:40.142Z,193.57
2018-12-04T05:42:10.093Z,168.80
2018-12-04T05:44:41.391Z,192.77
2018-12-04T05:47:12.033Z,203.03
2018-12-04T05:49:43.326Z,199.00
2018-12-04T05:52:13.950Z,190.03
2018-12-04T05:54:44.969Z,176.87
2018-12-04T05:57:15.264Z,188.43
2018-12-04T05:59:45.316Z,173.17
2018-12-04T06:02:15.853Z,207.27
2018-12-04T06:04:46.822Z,179.07
2018-12-04T06:07:16.930Z,202.47
2018-12-04T06:09:47.251Z,176.70
2018-12-04T06:12:17.846Z,194.77
2018-12-04T06:14:48.167Z,164.40
2018-12-04T06:17:18.707Z,174.43
2018-12-04T06:19:49.144Z,195.43
2018-12-04T06:22:19.932Z,195.47
2018-12-04T06:24:50.442Z,192.83
2018-12-04T06:27:20.772Z,171.77
2018-12-04T06:29:51.192Z,180.53
2018-12-04T06:32:22.045Z,159.43
2018-12-04T06:34:52.979Z,190.00
2018-12-04T06:37:23.381Z,175.37
2018-12-04T06:39:54.597Z,181.53
2018-12-04T06:42:25.049Z,172.00
2018-12-04T06:44:55.601Z,166.13
2018-12-04T06:47:25.994Z,160.87
2018-12-04T06:49:56.015Z,185.23
2018-12-04T06:52:25.972Z,166.90
2018-12-04T06:54:55.985Z,185.20
2018-12-04T06:57:27.236Z,192.83
2018-12-04T06:59:57.264Z,173.87
2018-12-04T07:02:27.210Z,161.20
2018-12-04T07:04:57.375Z,174.50
2018-12-04T07:07:27.325Z,184.20
2018-12-04T07:09:57.995Z,170.67
2018-12-04T07:12:28.043Z,179.90
2018-12-04T07:14:57.952Z,177.20
2018-12-04T07:17:27.981Z,171.40
2018-12-04T07:19:57.883Z,176.93
2018-12-04T07:22:27.695Z,184.93
2018-12-04T07:24:58.176Z,162.50
2018-12-04T07:27:28.237Z,165.90
2018-12-04T07:29:58.324Z,181.07
2018-12-04T07:32:29.039Z,190.93
2018-12-04T07:34:59.945Z,213.00
2018-12-04T07:37:30.301Z,180.53
2018-12-04T07:40:00.550Z,193.07
2018-12-04T07:42:30.832Z,183.57
2018-12-04T07:45:01.638Z,181.83
2018-12-04T07:47:32.529Z,182.87
2018-12-04T07:50:03.007Z,178.83
2018-12-04T07:52:33.486Z,180.53
2018-12-04T07:55:03.822Z,178.40
2018-12-04T07:57:34.576Z,196.67
2018-12-04T08:00:06.107Z,171.40
2018-12-04T08:02:36.541Z,181.00
2018-12-04T08:05:07.268Z,171.37
2018-12-04T08:07:37.897Z,184.83
2018-12-04T08:10:08.740Z,183.93
2018-12-04T08:12:39.172Z,176.27
2018-12-04T08:15:09.564Z,196.33
2018-12-04T08:17:40.648Z,177.63
2018-12-04T08:20:11.438Z,181.27
2018-12-04T08:22:42.065Z,186.03
2018-12-04T08:25:13.052Z,176.07
2018-12-04T08:27:43.736Z,158.60
2018-12-04T08:30:14.960Z,165.20
2018-12-04T08:32:45.365Z,160.73
2018-12-04T08:35:21.982Z,171.87
2018-12-04T08:37:52.438Z,164.80
2018-12-04T08:40:23.248Z,152.80
2018-12-04T08:42:53.481Z,171.07
2018-12-04T08:45:24.387Z,170.60
2018-12-04T08:47:55.187Z,171.20
2018-12-04T08:50:26.018Z,156.23
2018-12-04T08:52:57.297Z,159.53
2018-12-04T08:55:29.000Z,162.20
2018-12-04T08:57:59.441Z,167.43
2018-12-04T09:00:30.379Z,159.80
2018-12-04T09:03:00.473Z,163.10
2018-12-04T09:05:31.018Z,165.07
2018-12-04T09:08:01.360Z,176.87
2018-12-04T09:10:31.620Z,177.67
2018-12-04T09:13:02.780Z,165.50
2018-12-04T09:15:33.137Z,165.83
2018-12-04T09:18:03.682Z,179.77
2018-12-04T09:20:34.958Z,189.67
2018-12-04T09:23:05.486Z,198.07
2018-12-04T09:25:35.990Z,205.53
2018-12-04T09:28:07.125Z,200.73
2018-12-04T09:30:38.578Z,176.53
2018-12-04T09:33:09.118Z,186.13
2018-12-04T09:35:40.205Z,197.63
2018-12-04T09:38:10.575Z,183.70
2018-12-04T09:40:41.544Z,176.23
2018-12-04T09:43:12.082Z,208.10
2018-12-04T09:45:42.270Z,211.93
2018-12-04T09:48:12.492Z,198.33
2018-12-04T09:50:43.511Z,186.57
2018-12-04T09:53:13.552Z,195.30
2018-12-04T09:55:43.863Z,195.33
2018-12-04T09:58:14.644Z,185.03
2018-12-04T10:00:44.812Z,180.23
2018-12-04T10:03:15.240Z,200.20
2018-12-04T10:05:45.615Z,197.13
2018-12-04T10:08:16.157Z,184.80
2018-12-04T10:10:51.940Z,186.97
2018-12-04T10:13:22.063Z,179.93
2018-12-04T10:15:52.374Z,181.57
2018-12-04T10:18:23.831Z,188.43
2018-12-04T10:20:54.749Z,180.87
2018-12-04T10:23:25.278Z,208.53
2018-12-04T10:25:56.263Z,185.63
2018-12-04T10:28:27.143Z,196.63
2018-12-04T10:31:02.979Z,211.93
2018-12-04T10:33:33.123Z,208.23
2018-12-04T10:36:03.094Z,200.87
2018-12-04T10:38:33.595Z,213.50
2018-12-04T10:41:04.848Z,198.50
2018-12-04T10:43:35.544Z,200.20
2018-12-04T10:46:05.490Z,208.50
2018-12-04T10:48:35.600Z,207.73
2018-12-04T10:51:06.410Z,190.00
2018-12-04T10:53:36.650Z,218.00
2018-12-04T10:56:06.972Z,211.13
2018-12-04T10:58:37.792Z,194.70
2018-12-04T11:01:13.833Z,212.17
2018-12-04T11:03:44.073Z,186.03
2018-12-04T11:06:14.257Z,191.83
2018-12-04T11:08:44.917Z,191.00
2018-12-04T11:11:15.294Z,174.50
2018-12-04T11:13:46.078Z,155.23
2018-12-04T11:16:16.332Z,183.60
2018-12-04T11:18:46.717Z,176.97
2018-12-04T11:21:17.032Z,164.33
2018-12-04T11:23:47.091Z,175.33
2018-12-04T11:26:17.688Z,165.60
2018-12-04T11:28:47.841Z,141.77
2018-12-04T11:31:18.972Z,151.77
2018-12-04T11:33:49.926Z,144.63
2018-12-04T11:36:20.384Z,142.40
2018-12-04T11:38:50.519Z,162.23
2018-12-04T11:41:20.847Z,151.77
2018-12-04T11:43:51.528Z,147.50
2018-12-04T11:46:22.788Z,180.63
2018-12-04T11:48:53.727Z,159.77
2018-12-04T11:51:25.956Z,190.83
2018-12-04T11:53:56.866Z,162.67
2018-12-04T11:56:27.418Z,179.50
2018-12-04T11:58:58.424Z,189.17
2018-12-04T12:01:30.992Z,207.63
2018-12-04T12:04:02.071Z,188.40
2018-12-04T12:06:32.712Z,213.00
2018-12-04T12:09:04.218Z,216.57
2018-12-04T12:11:35.695Z,224.27
2018-12-04T12:14:06.482Z,220.33
2018-12-04T12:16:36.566Z,234.87
2018-12-04T12:19:07.187Z,276.73
2018-12-04T12:21:37.369Z,271.87
2018-12-04T12:24:07.583Z,258.03
2018-12-04T12:26:37.704Z,249.97
2018-12-04T12:29:08.485Z,331.70
2018-12-04T12:31:39.131Z,274.63
2018-12-04T12:34:09.413Z,335.43
2018-12-04T12:36:39.963Z,267.17
2018-12-04T12:39:10.036Z,294.33
2018-12-04T12:41:41.989Z,293.90
2018-12-04T12:44:12.804Z,301.73
2018-12-04T12:46:43.236Z,217.20
2018-12-04T12:49:14.006Z,218.77
2018-12-04T12:51:48.473Z,181.07
2018-12-04T12:54:18.937Z,195.03
2018-12-04T12:56:49.184Z,185.93
2018-12-04T12:59:19.506Z,189.70
2018-12-04T13:01:50.867Z,155.17
2018-12-04T13:04:21.393Z,188.87
2018-12-04T13:06:51.682Z,186.80
2018-12-04T13:09:22.045Z,200.63
2018-12-04T13:11:52.925Z,206.43
2018-12-04T13:14:23.283Z,191.60
2018-12-04T13:16:53.369Z,211.10
2018-12-04T13:19:24.156Z,209.80
2018-12-04T13:21:54.361Z,194.27
2018-12-04T13:24:25.155Z,158.67
2018-12-04T13:26:55.741Z,114.80
2018-12-04T13:29:26.061Z,115.73
2018-12-04T13:31:56.709Z,106.67
2018-12-04T13:34:27.723Z,111.73
2018-12-04T13:36:58.605Z,95.20
2018-12-04T13:39:28.683Z,88.83
2018-12-04T13:41:59.980Z,95.23
2018-12-04T13:44:30.487Z,87.97
2018-12-04T13:47:01.195Z,82.83
2018-12-04T13:49:31.445Z,85.10
2018-12-04T13:52:02.454Z,92.70
2018-12-04T13:54:32.538Z,91.03
2018-12-04T13:57:02.898Z,94.83
2018-12-04T13:59:34.880Z,100.67
2018-12-04T14:02:05.142Z,97.30
2018-12-04T14:04:35.915Z,73.83
2018-12-04T14:07:06.164Z,72.67
2018-12-04T14:09:36.464Z,57.73
2018-12-04T14:12:07.219Z,57.73
2018-12-04T14:14:37.314Z,54.93
2018-12-04T14:17:07.984Z,48.93
2018-12-04T14:19:38.400Z,47.50
2018-12-04T14:22:09.063Z,40.17
2018-12-04T14:24:41.327Z,42.30
2018-12-04T14:27:12.142Z,40.40
2018-12-04T14:29:42.563Z,29.33
2018-12-04T14:32:13.572Z,25.37
2018-12-04T14:34:43.774Z,40.20
2018-12-04T14:37:14.544Z,19.37
2018-12-04T14:39:44.765Z,24.80
2018-12-04T14:42:15.046Z,20.50
2018-12-04T14:44:45.353Z,16.43
2018-12-04T14:47:16.253Z,13.90
2018-12-04T14:49:47.120Z,19.07
2018-12-04T14:52:17.974Z,13.33
2018-12-04T14:54:48.671Z,15.27
2018-12-04T14:57:18.649Z,11.57
2018-12-04T14:59:49.850Z,15.53
2018-12-04T15:02:20.793Z,10.97
2018-12-04T15:04:51.448Z,15.23
2018-12-04T15:07:21.894Z,12.20
2018-12-04T15:09:53.053Z,16.30
2018-12-04T15:12:23.133Z,11.93
2018-12-04T15:14:53.445Z,11.87
2018-12-04T15:17:23.903Z,14.90
2018-12-04T15:19:54.532Z,16.10
2018-12-04T15:22:25.725Z,18.23
2018-12-04T15:24:58.074Z,17.40
2018-12-04T15:27:28.788Z,16.60
2018-12-04T15:30:00.128Z,13.80
2018-12-04T15:32:30.693Z,27.03
2018-12-04T15:35:01.003Z,13.83
2018-12-04T15:37:32.408Z,14.47
2018-12-04T15:40:03.169Z,27.13
2018-12-04T15:42:33.797Z,21.47
2018-12-04T15:45:05.383Z,13.00
2018-12-04T15:47:36.424Z,30.30
2018-12-04T15:50:07.541Z,14.37
2018-12-04T15:52:38.474Z,17.90
2018-12-04T15:55:09.071Z,15.37
2018-12-04T15:57:39.811Z,21.07
2018-12-04T16:00:10.910Z,17.23
2018-12-04T16:02:42.604Z,17.97
2018-12-04T16:05:13.012Z,13.20
2018-12-04T16:07:43.664Z,16.50
2018-12-04T16:10:15.657Z,16.60
2018-12-04T16:12:46.015Z,17.23
2018-12-04T16:15:16.482Z,13.30
2018-12-04T16:17:46.811Z,21.50
2018-12-04T16:20:17.057Z,17.13
2018-12-04T16:22:48.530Z,20.00
2018-12-04T16:25:19.036Z,18.03
2018-12-04T16:27:49.441Z,17.47
2018-12-04T16:30:19.791Z,21.37
2018-12-04T16:32:50.912Z,14.53
2018-12-04T16:35:21.279Z,17.20
2018-12-04T16:37:51.566Z,16.17
2018-12-04T16:40:22.486Z,25.23
2018-12-04T16:42:54.401Z,22.30
2018-12-04T16:45:25.023Z,17.93
2018-12-04T16:47:55.285Z,23.90
2018-12-04T16:50:25.565Z,25.70
2018-12-04T16:52:56.461Z,39.13
2018-12-04T16:55:27.379Z,27.13
2018-12-04T16:57:57.706Z,20.37
2018-12-04T17:00:28.773Z,23.07
2018-12-04T17:02:59.013Z,22.13
2018-12-04T17:05:30.194Z,20.70
2018-12-04T17:08:00.457Z,22.47
2018-12-04T17:10:32.272Z,23.30
2018-12-04T17:13:02.851Z,15.03
2018-12-04T17:15:33.796Z,19.73
2018-12-04T17:18:05.182Z,21.37
2018-12-04T17:20:35.683Z,20.10
2018-12-04T17:23:06.644Z,18.70
2018-12-04T17:25:36.966Z,23.27
2018-12-04T17:28:08.038Z,22.33
2018-12-04T17:30:38.656Z,19.77
2018-12-04T17:33:08.749Z,24.83
2018-12-04T17:35:39.820Z,24.27
2018-12-04T17:38:10.453Z,28.57
2018-12-04T17:40:41.629Z,19.67
2018-12-04T17:43:15.814Z,21.80
2018-12-04T17:45:46.082Z,18.60
2018-12-04T17:50:53.021Z,21.93
2018-12-04T17:53:23.344Z,20.43
2018-12-04T17:55:55.004Z,23.37
2018-12-04T17:58:25.855Z,15.83
2018-12-04T18:00:57.091Z,18.93
2018-12-04T18:03:28.090Z,24.73
2018-12-04T18:05:58.807Z,28.17
2018-12-04T18:08:29.023Z,23.57
2018-12-04T18:11:01.244Z,24.20
2018-12-04T18:13:32.794Z,22.77
2018-12-04T18:16:09.050Z,23.77
2018-12-04T18:18:39.885Z,28.97
2018-12-04T18:21:13.640Z,29.90
2018-12-04T18:23:50.247Z,24.03
2018-12-04T18:26:27.022Z,22.07
2018-12-04T18:28:56.876Z,26.03
2018-12-04T18:31:28.961Z,28.33
2018-12-04T18:33:59.361Z,20.93
2018-12-04T18:36:31.996Z,28.73
2018-12-04T18:39:02.671Z,17.23
2018-12-04T18:41:35.717Z,15.53
2018-12-04T18:44:08.844Z,22.07
2018-12-04T18:46:39.997Z,20.63
2018-12-04T18:49:10.915Z,31.30
2018-12-04T18:51:42.305Z,26.80
2018-12-04T18:54:13.387Z,26.90
2018-12-04T18:56:43.975Z,38.03
2018-12-04T18:59:14.391Z,37.77
2018-12-04T19:01:44.600Z,25.57
2018-12-04T19:04:15.145Z,36.73
2018-12-04T19:06:50.758Z,42.20
2018-12-04T19:09:21.638Z,38.30
2018-12-04T19:11:51.788Z,27.53
2018-12-04T19:14:23.764Z,44.30
2018-12-04T19:16:54.886Z,33.23
2018-12-04T19:19:26.226Z,32.07
2018-12-04T19:21:56.909Z,36.50
2018-12-04T19:24:30.362Z,39.63
2018-12-04T19:27:03.266Z,51.73
2018-12-04T19:29:35.793Z,37.87
2018-12-04T19:32:08.968Z,41.60
2018-12-04T19:34:39.196Z,29.70
2018-12-04T19:37:11.365Z,41.33
2018-12-04T19:39:42.385Z,45.00
2018-12-04T19:42:12.914Z,50.97
2018-12-04T19:44:45.016Z,39.17
2018-12-04T19:47:16.923Z,47.77
2018-12-04T19:52:27.402Z,36.80
2018-12-04T19:54:59.009Z,37.57
2018-12-04T19:57:31.736Z,37.67
2018-12-04T20:00:03.805Z,36.50
2018-12-04T20:02:34.184Z,40.77
2018-12-04T20:05:04.979Z,40.57
2018-12-04T20:07:35.571Z,48.27
2018-12-04T20:10:07.748Z,47.67
2018-12-04T20:12:38.542Z,41.97
2018-12-04T20:15:09.570Z,48.20
2018-12-04T20:17:40.901Z,37.17
2018-12-04T20:20:11.533Z,63.33
2018-12-04T20:22:42.198Z,40.50
2018-12-04T20:25:14.286Z,48.90
2018-12-04T20:27:46.795Z,53.67
2018-12-04T20:30:18.396Z,45.67
2018-12-04T20:32:50.598Z,40.20
2018-12-04T20:35:22.634Z,37.87
2018-12-04T20:37:53.351Z,43.70
2018-12-04T20:40:31.169Z,39.37
2018-12-04T20:42:58.154Z,36.10
2018-12-04T20:45:30.054Z,49.87
2018-12-04T20:48:02.159Z,48.70
2018-12-04T20:50:34.166Z,35.37
2018-12-04T20:53:08.261Z,49.17
2018-12-04T20:55:39.700Z,46.43
2018-12-04T20:58:10.486Z,51.83
2018-12-04T21:00:40.966Z,60.33
2018-12-04T21:03:11.171Z,49.40
2018-12-04T21:05:42.372Z,51.40
2018-12-04T21:08:13.103Z,50.43
2018-12-04T21:10:48.657Z,61.00
2018-12-04T21:13:19.449Z,52.67
2018-12-04T21:15:50.030Z,59.73
2018-12-04T21:18:20.884Z,58.50
2018-12-04T21:23:28.339Z,51.53
2018-12-04T21:25:59.642Z,52.60
2018-12-04T21:28:31.194Z,55.77
2018-12-04T21:31:06.821Z,55.23
2018-12-04T21:33:42.539Z,55.90
2018-12-04T21:36:18.146Z,46.50
2018-12-04T21:38:53.946Z,60.67
2018-12-04T21:41:29.846Z,53.77
2018-12-04T21:44:05.636Z,46.53
2018-12-04T21:46:40.912Z,57.67
2018-12-04T21:49:11.676Z,56.40
2018-12-04T21:51:42.381Z,59.13
2018-12-04T21:54:13.415Z,48.97
2018-12-04T21:56:43.929Z,46.73
2018-12-04T21:59:15.023Z,55.60
2018-12-04T22:01:45.353Z,70.13
2018-12-04T22:04:15.625Z,45.47
2018-12-04T22:06:45.914Z,68.00
2018-12-04T22:09:16.817Z,45.47
2018-12-04T22:11:47.197Z,54.93
2018-12-04T22:14:18.959Z,53.53
2018-12-04T22:16:49.171Z,49.60
2018-12-04T22:19:19.790Z,59.87
2018-12-04T22:21:51.156Z,50.73
2018-12-04T22:24:21.999Z,44.90
2018-12-04T22:26:52.125Z,55.53
2018-12-04T22:29:22.668Z,47.67
2018-12-04T22:31:52.994Z,49.57
2018-12-04T22:34:23.044Z,40.33
2018-12-04T22:36:53.500Z,41.13
2018-12-04T22:39:24.303Z,43.00
2018-12-04T22:41:55.087Z,42.17
2018-12-04T22:44:43.450Z,35.70
2018-12-04T22:47:17.909Z,52.87
2018-12-04T22:49:48.427Z,46.33
2018-12-04T22:52:19.130Z,43.03
2018-12-04T22:54:49.432Z,50.53
2018-12-04T22:57:20.013Z,38.50
2018-12-04T22:59:50.252Z,40.83
2018-12-04T23:02:20.627Z,47.67
2018-12-04T23:04:52.824Z,43.93
2018-12-04T23:07:23.317Z,40.27
2018-12-04T23:09:53.886Z,49.67
2018-12-04T23:12:24.578Z,50.93
2018-12-04T23:14:54.613Z,42.37
2018-12-04T23:17:25.374Z,46.50
2018-12-04T23:19:55.681Z,48.13
2018-12-04T23:22:25.883Z,45.40
2018-12-04T23:24:56.207Z,49.53
2018-12-04T23:27:26.640Z,43.87
2018-12-04T23:29:56.906Z,43.70
2018-12-04T23:32:27.092Z,40.57
2018-12-04T23:34:57.341Z,38.27
2018-12-04T23:37:27.866Z,52.37
2018-12-04T23:39:58.444Z,42.13
2018-12-04T23:42:28.905Z,44.07
2018-12-04T23:44:58.911Z,56.47
2018-12-04T23:47:30.072Z,38.17
2018-12-04T23:50:00.603Z,43.53
2018-12-04T23:52:31.108Z,42.37
2018-12-04T23:55:01.755Z,40.80
2018-12-04T23:57:31.637Z,49.83
